createdAt,value
2018-04-14T00:00:12.267Z,9.80
2018-04-14T00:02:40.476Z,9.70
2018-04-14T00:05:07.919Z,9.60
2018-04-14T00:07:35.724Z,9.60
2018-04-14T00:10:03.176Z,9.60
2018-04-14T00:12:30.616Z,9.60
2018-04-14T00:14:58.051Z,9.60
2018-04-14T00:17:25.504Z,9.60
2018-04-14T00:19:52.939Z,9.60
2018-04-14T00:22:20.601Z,9.60
2018-04-14T00:24:48.043Z,9.70
2018-04-14T00:27:15.488Z,9.70
2018-04-14T00:29:42.933Z,9.70
2018-04-14T00:32:10.470Z,9.70
2018-04-14T00:34:37.923Z,9.70
2018-04-14T00:37:05.369Z,9.70
2018-04-14T00:39:32.807Z,9.70
2018-04-14T00:42:00.255Z,9.60
2018-04-14T00:44:27.715Z,9.50
2018-04-14T00:46:55.169Z,9.50
2018-04-14T00:49:22.611Z,9.40
2018-04-14T00:51:50.067Z,9.30
2018-04-14T00:54:17.503Z,9.20
2018-04-14T00:56:44.952Z,9.20
2018-04-14T00:59:12.401Z,9.10
2018-04-14T01:01:39.864Z,9.10
2018-04-14T01:04:07.337Z,9.10
2018-04-14T01:06:34.780Z,9.10
2018-04-14T01:09:02.220Z,9.10
2018-04-14T01:11:30.061Z,9.10
2018-04-14T01:13:57.503Z,9.10
2018-04-14T01:16:27.646Z,9.10
2018-04-14T01:18:55.981Z,9.10
2018-04-14T01:21:23.429Z,9.10
2018-04-14T01:23:50.901Z,9.10
2018-04-14T01:26:19.794Z,9.00
2018-04-14T01:28:48.765Z,9.00
2018-04-14T01:31:16.989Z,9.00
2018-04-14T01:36:19.432Z,8.90
2018-04-14T01:38:47.629Z,8.80
2018-04-14T01:41:15.069Z,8.80
2018-04-14T01:43:43.288Z,8.70
2018-04-14T01:46:10.725Z,8.70
2018-04-14T01:48:38.164Z,8.70
2018-04-14T01:51:05.626Z,8.70
2018-04-14T01:53:36.851Z,8.70
2018-04-14T01:56:04.288Z,8.70
2018-04-14T01:58:31.723Z,8.70
2018-04-14T02:00:59.184Z,8.70
2018-04-14T02:03:26.627Z,8.70
2018-04-14T02:05:54.064Z,8.70
2018-04-14T02:08:21.515Z,8.70
2018-04-14T02:10:49.183Z,8.60
2018-04-14T02:13:16.624Z,8.60
2018-04-14T02:15:45.324Z,8.50
2018-04-14T02:18:12.763Z,8.50
2018-04-14T02:20:40.200Z,8.50
2018-04-14T02:23:07.822Z,8.40
2018-04-14T02:25:35.268Z,8.40
2018-04-14T02:28:02.711Z,8.40
2018-04-14T02:30:30.153Z,8.40
2018-04-14T02:32:57.616Z,8.40
2018-04-14T02:35:25.052Z,8.40
2018-04-14T02:37:52.500Z,8.40
2018-04-14T02:40:21.440Z,8.40
2018-04-14T02:42:48.876Z,8.40
2018-04-14T02:45:16.534Z,8.40
2018-04-14T02:47:43.972Z,8.40
2018-04-14T02:50:11.414Z,8.30
2018-04-14T02:52:38.849Z,8.20
2018-04-14T02:55:06.288Z,8.20
2018-04-14T02:57:33.735Z,8.10
2018-04-14T03:00:01.176Z,8.10
2018-04-14T03:02:28.641Z,8.00
2018-04-14T03:04:56.099Z,7.90
2018-04-14T03:07:23.539Z,7.90
2018-04-14T03:09:50.996Z,7.80
2018-04-14T03:12:18.432Z,7.80
2018-04-14T03:14:45.884Z,7.70
2018-04-14T03:17:13.323Z,7.70
2018-04-14T03:19:40.776Z,7.70
2018-04-14T03:22:08.241Z,7.60
2018-04-14T03:24:35.668Z,7.70
2018-04-14T03:27:03.123Z,7.70
2018-04-14T03:29:30.555Z,7.70
2018-04-14T03:31:58.008Z,7.70
2018-04-14T03:34:25.466Z,7.80
2018-04-14T03:36:53.669Z,7.80
2018-04-14T03:39:21.121Z,7.70
2018-04-14T03:41:48.551Z,7.80
2018-04-14T03:44:15.989Z,7.80
2018-04-14T03:46:43.437Z,7.80
2018-04-14T03:49:10.872Z,7.80
2018-04-14T03:51:38.336Z,7.80
2018-04-14T03:54:05.772Z,7.70
2018-04-14T03:56:33.208Z,7.70
2018-04-14T03:59:00.659Z,7.60
2018-04-14T04:01:28.236Z,7.60
2018-04-14T04:03:55.693Z,7.60
2018-04-14T04:06:24.639Z,7.50
2018-04-14T04:08:52.110Z,7.60
2018-04-14T04:11:19.561Z,7.60
2018-04-14T04:13:47.006Z,7.60
2018-04-14T04:16:14.467Z,7.60
2018-04-14T04:18:53.776Z,7.60
2018-04-14T04:21:33.030Z,7.60
2018-04-14T04:24:12.320Z,7.50
2018-04-14T04:26:39.771Z,7.50
2018-04-14T04:29:07.208Z,7.50
2018-04-14T04:31:34.673Z,7.60
2018-04-14T04:34:02.955Z,7.60
2018-04-14T04:36:30.406Z,7.60
2018-04-14T04:38:57.848Z,7.60
2018-04-14T04:41:25.388Z,7.60
2018-04-14T04:43:52.827Z,7.60
2018-04-14T04:46:20.273Z,7.60
2018-04-14T04:48:48.286Z,7.60
2018-04-14T04:51:15.717Z,7.50
2018-04-14T04:53:43.287Z,7.50
2018-04-14T04:56:10.729Z,7.50
2018-04-14T04:58:38.190Z,7.50
2018-04-14T05:01:05.608Z,7.50
2018-04-14T05:03:33.829Z,7.60
2018-04-14T05:06:01.323Z,7.50
2018-04-14T05:08:28.758Z,7.50
2018-04-14T05:10:56.212Z,7.50
2018-04-14T05:13:23.677Z,7.40
2018-04-14T05:15:51.856Z,7.40
2018-04-14T05:18:19.296Z,7.30
2018-04-14T05:20:46.732Z,7.40
2018-04-14T05:23:14.188Z,7.40
2018-04-14T05:25:41.613Z,7.40
2018-04-14T05:28:09.113Z,7.40
2018-04-14T05:30:36.521Z,7.40
2018-04-14T05:33:03.958Z,7.40
2018-04-14T05:35:31.415Z,7.50
2018-04-14T05:37:58.935Z,7.60
2018-04-14T05:40:26.409Z,7.60
2018-04-14T05:42:53.852Z,7.70
2018-04-14T05:45:21.296Z,7.80
2018-04-14T05:47:48.744Z,7.90
2018-04-14T05:50:16.189Z,8.00
2018-04-14T05:52:43.668Z,8.00
2018-04-14T05:55:11.103Z,8.10
2018-04-14T05:57:38.717Z,8.10
2018-04-14T06:00:06.193Z,8.10
2018-04-14T06:02:33.604Z,8.20
2018-04-14T06:05:01.055Z,8.20
2018-04-14T06:07:28.484Z,8.30
2018-04-14T06:09:55.922Z,8.20
2018-04-14T06:12:23.384Z,8.30
2018-04-14T06:14:50.831Z,8.40
2018-04-14T06:17:18.276Z,8.50
2018-04-14T06:19:45.737Z,8.50
2018-04-14T06:22:13.197Z,8.60
2018-04-14T06:24:40.635Z,8.70
2018-04-14T06:27:08.083Z,8.80
2018-04-14T06:29:35.540Z,8.90
2018-04-14T06:32:02.980Z,9.00
2018-04-14T06:34:30.424Z,9.10
2018-04-14T06:36:57.864Z,9.20
2018-04-14T06:39:25.307Z,9.20
2018-04-14T06:41:52.757Z,9.30
2018-04-14T06:44:20.211Z,9.40
2018-04-14T06:46:47.654Z,9.40
2018-04-14T06:49:15.111Z,9.50
2018-04-14T06:51:42.570Z,9.60
2018-04-14T06:54:09.999Z,9.70
2018-04-14T06:56:37.440Z,9.80
2018-04-14T06:59:04.871Z,9.80
2018-04-14T07:01:32.436Z,9.90
2018-04-14T07:04:01.407Z,10.10
2018-04-14T07:06:28.856Z,10.10
2018-04-14T07:08:56.315Z,10.30
2018-04-14T07:11:23.772Z,10.40
2018-04-14T07:13:51.228Z,10.40
2018-04-14T07:16:18.680Z,10.40
2018-04-14T07:18:48.274Z,10.50
2018-04-14T07:21:16.498Z,10.60
2018-04-14T07:23:43.932Z,10.60
2018-04-14T07:26:27.236Z,10.80
2018-04-14T07:28:54.655Z,11.00
2018-04-14T07:31:22.118Z,11.20
2018-04-14T07:33:50.904Z,11.40
2018-04-14T07:36:19.320Z,11.60
2018-04-14T07:38:46.768Z,11.70
2018-04-14T07:41:14.536Z,11.80
2018-04-14T07:43:41.999Z,11.90
2018-04-14T07:46:09.457Z,11.90
2018-04-14T07:48:36.893Z,12.00
2018-04-14T07:51:04.352Z,12.00
2018-04-14T07:53:31.812Z,12.00
2018-04-14T07:55:59.252Z,12.00
2018-04-14T07:58:26.707Z,12.00
2018-04-14T08:00:54.159Z,12.00
2018-04-14T08:03:22.397Z,12.40
2018-04-14T08:05:49.826Z,12.30
2018-04-14T08:08:17.272Z,12.50
2018-04-14T08:10:44.740Z,12.50
2018-04-14T08:13:12.181Z,12.70
2018-04-14T08:15:39.642Z,13.00
2018-04-14T08:18:07.257Z,13.10
2018-04-14T08:20:35.309Z,13.20
2018-04-14T08:23:03.183Z,13.50
2018-04-14T08:25:31.599Z,13.80
2018-04-14T08:27:59.073Z,14.20
2018-04-14T08:30:27.063Z,14.80
2018-04-14T08:32:54.617Z,15.50
2018-04-14T08:35:22.085Z,16.10
2018-04-14T08:37:49.548Z,17.10
2018-04-14T08:40:16.995Z,18.20
2018-04-14T08:42:44.461Z,19.20
2018-04-14T08:45:13.433Z,20.80
2018-04-14T08:47:40.905Z,20.80
2018-04-14T08:50:08.368Z,21.30
2018-04-14T08:52:35.867Z,21.90
2018-04-14T08:55:04.106Z,22.30
2018-04-14T08:57:33.079Z,22.60
2018-04-14T09:00:00.567Z,22.60
2018-04-14T09:02:28.055Z,22.90
2018-04-14T09:04:56.288Z,23.40
2018-04-14T09:07:23.776Z,23.30
2018-04-14T09:09:51.211Z,23.60
2018-04-14T09:12:18.652Z,23.70
2018-04-14T09:14:46.107Z,24.00
2018-04-14T09:17:13.813Z,24.30
2018-04-14T09:19:41.655Z,24.50
2018-04-14T09:22:09.131Z,25.00
2018-04-14T09:24:36.599Z,25.70
2018-04-14T09:27:04.164Z,26.10
2018-04-14T09:29:32.548Z,26.10
2018-04-14T09:32:00.869Z,26.00
2018-04-14T09:34:29.101Z,26.40
2018-04-14T09:36:56.581Z,26.30
2018-04-14T09:39:24.060Z,26.90
2018-04-14T09:41:51.516Z,27.30
2018-04-14T09:44:20.473Z,27.50
2018-04-14T09:46:47.925Z,27.50
2018-04-14T09:49:15.387Z,27.80
2018-04-14T09:51:43.332Z,28.20
2018-04-14T09:54:10.775Z,28.60
2018-04-14T09:56:38.239Z,29.00
2018-04-14T09:59:05.699Z,28.90
2018-04-14T10:01:33.159Z,28.80
2018-04-14T10:04:00.616Z,28.60
2018-04-14T10:06:28.093Z,28.60
2018-04-14T10:08:55.548Z,28.40
2018-04-14T10:11:29.161Z,28.80
2018-04-14T10:13:56.711Z,29.30
2018-04-14T10:16:24.159Z,29.60
2018-04-14T10:18:55.415Z,30.10
2018-04-14T10:21:22.897Z,30.10
2018-04-14T10:23:50.905Z,29.70
2018-04-14T10:26:18.690Z,29.20
2018-04-14T10:28:46.147Z,28.90
2018-04-14T10:31:13.606Z,29.10
2018-04-14T10:33:41.059Z,29.20
2018-04-14T10:36:08.523Z,29.60
2018-04-14T10:38:35.972Z,29.60
2018-04-14T10:41:03.439Z,29.30
2018-04-14T10:43:30.897Z,29.30
2018-04-14T10:45:58.343Z,29.30
2018-04-14T10:48:26.583Z,29.10
2018-04-14T10:50:54.125Z,29.00
2018-04-14T10:53:21.657Z,28.80
2018-04-14T10:55:49.224Z,28.80
2018-04-14T10:58:16.681Z,29.10
2018-04-14T11:00:44.198Z,29.30
2018-04-14T11:03:11.707Z,29.10
2018-04-14T11:05:40.012Z,29.70
2018-04-14T11:08:07.528Z,29.60
2018-04-14T11:10:36.034Z,29.70
2018-04-14T11:13:03.559Z,29.70
2018-04-14T11:15:31.068Z,29.80
2018-04-14T11:17:59.357Z,28.00
2018-04-14T11:20:26.883Z,27.90
2018-04-14T11:22:54.420Z,28.10
2018-04-14T11:25:21.967Z,28.80
2018-04-14T11:27:49.421Z,28.80
2018-04-14T11:30:17.311Z,28.90
2018-04-14T11:32:44.791Z,29.40
2018-04-14T11:35:12.252Z,29.60
2018-04-14T11:37:39.716Z,29.90
2018-04-14T11:40:07.252Z,30.40
2018-04-14T11:42:34.708Z,30.70
2018-04-14T11:45:02.260Z,30.70
2018-04-14T11:47:29.741Z,30.70
2018-04-14T11:49:57.216Z,30.70
2018-04-14T11:52:24.734Z,30.10
2018-04-14T11:54:52.995Z,30.50
2018-04-14T11:57:21.255Z,30.30
2018-04-14T11:59:48.803Z,30.30
2018-04-14T12:02:16.297Z,30.40
2018-04-14T12:04:43.816Z,30.70
2018-04-14T12:07:11.333Z,30.80
2018-04-14T12:09:38.834Z,30.60
2018-04-14T12:12:06.320Z,30.50
2018-04-14T12:14:33.889Z,30.10
2018-04-14T12:17:01.905Z,29.90
2018-04-14T12:19:30.784Z,30.00
2018-04-14T12:21:59.837Z,30.00
2018-04-14T12:24:27.365Z,30.00
2018-04-14T12:26:55.630Z,30.30
2018-04-14T12:29:23.095Z,30.30
2018-04-14T12:31:50.648Z,30.80
2018-04-14T12:34:18.183Z,30.80
2018-04-14T12:36:45.693Z,30.00
2018-04-14T12:39:13.229Z,29.40
2018-04-14T12:41:40.750Z,29.10
2018-04-14T12:44:08.283Z,28.40
2018-04-14T12:46:35.795Z,28.00
2018-04-14T12:49:03.321Z,27.10
2018-04-14T12:51:31.625Z,24.90
2018-04-14T12:53:59.674Z,24.80
2018-04-14T12:56:27.884Z,24.80
2018-04-14T12:58:55.341Z,24.70
2018-04-14T13:01:22.798Z,25.80
2018-04-14T13:03:54.144Z,26.50
2018-04-14T13:06:29.105Z,26.60
2018-04-14T13:08:56.992Z,26.50
2018-04-14T13:11:24.594Z,26.10
2018-04-14T13:13:52.804Z,25.10
2018-04-14T13:16:20.272Z,25.10
2018-04-14T13:18:48.407Z,25.40
2018-04-14T13:21:16.638Z,26.00
2018-04-14T13:23:44.410Z,25.90
2018-04-14T13:26:13.458Z,26.40
2018-04-14T13:28:40.892Z,27.20
2018-04-14T13:31:08.352Z,27.80
2018-04-14T13:33:35.992Z,28.00
2018-04-14T13:36:03.462Z,28.20
2018-04-14T13:38:31.425Z,28.60
2018-04-14T13:40:58.871Z,29.00
2018-04-14T13:43:26.331Z,29.20
2018-04-14T13:45:53.795Z,29.00
2018-04-14T13:48:21.262Z,28.80
2018-04-14T13:50:48.716Z,28.90
2018-04-14T13:53:16.181Z,28.90
2018-04-14T13:55:44.070Z,29.30
2018-04-14T13:58:11.526Z,29.30
2018-04-14T14:00:38.974Z,29.10
2018-04-14T14:03:06.562Z,28.60
2018-04-14T14:05:34.020Z,28.70
2018-04-14T14:08:01.474Z,28.60
2018-04-14T14:10:28.967Z,28.50
2018-04-14T14:12:56.519Z,28.90
2018-04-14T14:15:23.981Z,29.50
2018-04-14T14:17:51.420Z,29.80
2018-04-14T14:20:18.921Z,29.70
2018-04-14T14:22:46.503Z,28.90
2018-04-14T14:25:13.965Z,29.10
2018-04-14T14:27:41.796Z,29.10
2018-04-14T14:30:09.240Z,29.10
2018-04-14T14:32:36.763Z,28.90
2018-04-14T14:35:05.011Z,27.60
2018-04-14T14:37:32.469Z,27.50
2018-04-14T14:40:06.004Z,27.60
2018-04-14T14:42:34.792Z,27.90
2018-04-14T14:45:08.515Z,28.30
2018-04-14T14:47:43.036Z,28.20
2018-04-14T14:50:18.697Z,27.20
2018-04-14T14:52:46.250Z,26.40
2018-04-14T14:55:14.467Z,26.60
2018-04-14T14:57:42.048Z,26.60
2018-04-14T15:00:09.630Z,26.50
2018-04-14T15:02:37.099Z,26.10
2018-04-14T15:05:04.625Z,25.70
2018-04-14T15:07:32.105Z,25.40
2018-04-14T15:09:59.622Z,25.10
2018-04-14T15:12:27.923Z,24.60
2018-04-14T15:14:55.447Z,24.60
2018-04-14T15:17:22.950Z,24.40
2018-04-14T15:19:50.859Z,24.10
2018-04-14T15:22:18.302Z,23.90
2018-04-14T15:24:45.758Z,23.50
2018-04-14T15:27:13.265Z,23.20
2018-04-14T15:29:40.805Z,22.90
2018-04-14T15:32:08.332Z,22.60
2018-04-14T15:34:35.904Z,22.50
2018-04-14T15:37:03.400Z,22.50
2018-04-14T15:39:31.067Z,22.50
2018-04-14T15:41:58.812Z,22.50
2018-04-14T15:44:26.267Z,22.50
2018-04-14T15:46:53.785Z,22.60
2018-04-14T15:49:21.217Z,22.60
2018-04-14T15:51:48.770Z,22.60
2018-04-14T15:54:16.253Z,22.70
2018-04-14T15:56:43.705Z,22.70
2018-04-14T15:59:11.159Z,22.50
2018-04-14T16:01:38.624Z,22.30
2018-04-14T16:04:09.788Z,22.20
2018-04-14T16:06:33.527Z,22.00
2018-04-14T16:09:01.019Z,21.90
2018-04-14T16:11:28.603Z,21.80
2018-04-14T16:13:57.593Z,21.70
2018-04-14T16:16:25.017Z,21.60
2018-04-14T16:18:53.243Z,21.60
2018-04-14T16:21:21.480Z,21.40
2018-04-14T16:23:48.949Z,21.40
2018-04-14T16:26:16.418Z,21.30
2018-04-14T16:28:43.879Z,21.30
2018-04-14T16:31:11.351Z,21.20
2018-04-14T16:33:39.027Z,21.10
2018-04-14T16:36:06.473Z,21.10
2018-04-14T16:38:33.934Z,21.10
2018-04-14T16:41:01.587Z,21.00
2018-04-14T16:43:29.286Z,21.00
2018-04-14T16:45:56.934Z,21.00
2018-04-14T16:48:24.403Z,21.00
2018-04-14T16:50:51.859Z,20.90
2018-04-14T16:53:19.315Z,20.90
2018-04-14T16:55:46.764Z,20.80
2018-04-14T16:58:14.218Z,20.70
2018-04-14T17:00:41.996Z,20.60
2018-04-14T17:03:10.277Z,20.50
2018-04-14T17:05:37.741Z,20.30
2018-04-14T17:08:06.000Z,20.30
2018-04-14T17:10:33.551Z,20.20
2018-04-14T17:13:00.988Z,20.10
2018-04-14T17:15:28.527Z,20.00
2018-04-14T17:17:56.099Z,20.00
2018-04-14T17:20:23.547Z,19.90
2018-04-14T17:22:51.003Z,19.90
2018-04-14T17:25:18.490Z,19.80
2018-04-14T17:27:45.893Z,19.70
2018-04-14T17:30:13.336Z,19.70
2018-04-14T17:32:40.828Z,19.70
2018-04-14T17:35:08.276Z,19.60
2018-04-14T17:37:35.708Z,19.50
2018-04-14T17:40:03.339Z,19.40
2018-04-14T17:42:30.791Z,19.40
2018-04-14T17:44:59.268Z,19.30
2018-04-14T17:47:26.725Z,19.20
2018-04-14T17:49:54.173Z,19.20
2018-04-14T17:52:21.631Z,19.20
2018-04-14T17:54:49.080Z,19.10
2018-04-14T17:57:16.655Z,19.10
2018-04-14T17:59:44.105Z,19.00
2018-04-14T18:02:11.552Z,18.90
2018-04-14T18:04:39.780Z,18.80
2018-04-14T18:07:07.223Z,18.70
2018-04-14T18:09:34.732Z,18.70
2018-04-14T18:12:02.141Z,18.60
2018-04-14T18:14:29.704Z,18.60
2018-04-14T18:16:57.168Z,18.50
2018-04-14T18:19:24.590Z,18.50
2018-04-14T18:21:52.055Z,18.40
2018-04-14T18:24:19.569Z,18.30
2018-04-14T18:26:47.039Z,18.20
2018-04-14T18:29:14.502Z,18.20
2018-04-14T18:31:41.941Z,18.10
2018-04-14T18:34:09.618Z,18.00
2018-04-14T18:36:37.068Z,17.90
2018-04-14T18:39:05.211Z,17.90
2018-04-14T18:41:33.445Z,17.80
2018-04-14T18:44:05.448Z,17.70
2018-04-14T18:51:07.520Z,17.70
2018-04-14T18:53:34.965Z,17.60
2018-04-14T18:56:02.520Z,17.50
2018-04-14T18:58:30.323Z,17.50
2018-04-14T19:00:57.796Z,17.40
2018-04-14T19:03:25.436Z,17.40
2018-04-14T19:05:52.963Z,17.30
2018-04-14T19:08:20.364Z,17.30
2018-04-14T19:10:47.854Z,17.30
2018-04-14T19:13:15.295Z,17.30
2018-04-14T19:15:42.733Z,17.30
2018-04-14T19:18:10.649Z,17.30
2018-04-14T19:20:39.572Z,17.10
2018-04-14T19:23:07.029Z,17.10
2018-04-14T19:25:34.472Z,17.20
2018-04-14T19:28:01.972Z,17.20
2018-04-14T19:30:30.878Z,17.00
2018-04-14T19:32:58.659Z,17.00
2018-04-14T19:35:26.328Z,17.00
2018-04-14T19:37:53.887Z,17.00
2018-04-14T19:40:21.240Z,16.90
2018-04-14T19:42:48.741Z,16.90
2018-04-14T19:45:16.187Z,16.80
2018-04-14T19:47:43.641Z,16.60
2018-04-14T19:50:11.081Z,16.50
2018-04-14T19:52:38.528Z,16.40
2018-04-14T19:55:06.215Z,16.30
2018-04-14T19:57:33.665Z,16.20
2018-04-14T20:00:01.127Z,16.10
2018-04-14T20:02:28.793Z,16.00
2018-04-14T20:04:56.222Z,16.00
2018-04-14T20:07:24.439Z,15.90
2018-04-14T20:09:51.880Z,15.80
2018-04-14T20:12:19.352Z,15.90
2018-04-14T20:14:46.824Z,15.90
2018-04-14T20:17:14.283Z,15.90
2018-04-14T20:19:41.758Z,15.90
2018-04-14T20:22:09.493Z,15.90
2018-04-14T20:24:37.003Z,16.00
2018-04-14T20:27:04.445Z,16.00
2018-04-14T20:29:31.905Z,16.00
2018-04-14T20:31:59.468Z,16.00
2018-04-14T20:34:26.918Z,16.00
2018-04-14T20:36:54.432Z,16.10
2018-04-14T20:39:21.859Z,16.10
2018-04-14T20:41:49.353Z,16.10
2018-04-14T20:44:16.814Z,16.10
2018-04-14T20:46:44.340Z,16.00
2018-04-14T20:49:11.793Z,15.90
2018-04-14T20:51:39.236Z,15.80
2018-04-14T20:54:06.675Z,15.70
2018-04-14T20:56:34.135Z,15.60
2018-04-14T20:59:01.664Z,15.50
2018-04-14T21:01:29.044Z,15.30
2018-04-14T21:03:56.496Z,15.30
2018-04-14T21:06:23.956Z,15.20
2018-04-14T21:08:51.399Z,15.10
2018-04-14T21:11:18.863Z,15.10
2018-04-14T21:13:46.312Z,15.00
2018-04-14T21:16:13.760Z,15.00
2018-04-14T21:18:41.204Z,15.00
2018-04-14T21:21:08.656Z,15.00
2018-04-14T21:23:36.101Z,15.00
2018-04-14T21:26:03.559Z,15.00
2018-04-14T21:28:31.067Z,15.00
2018-04-14T21:30:58.500Z,15.10
2018-04-14T21:33:25.979Z,15.10
2018-04-14T21:35:53.423Z,15.10
2018-04-14T21:38:21.857Z,15.10
2018-04-14T21:40:49.405Z,15.00
2018-04-14T21:43:16.823Z,15.00
2018-04-14T21:45:44.328Z,14.90
2018-04-14T21:48:11.744Z,14.90
2018-04-14T21:50:39.199Z,14.90
2018-04-14T21:53:06.648Z,14.90
2018-04-14T21:55:34.105Z,14.80
2018-04-14T21:58:01.557Z,14.80
2018-04-14T22:00:29.014Z,14.80
2018-04-14T22:02:56.459Z,14.80
2018-04-14T22:05:23.913Z,14.70
2018-04-14T22:07:51.352Z,14.70
2018-04-14T22:10:18.942Z,14.70
2018-04-14T22:12:46.393Z,14.70
2018-04-14T22:15:13.836Z,14.70
2018-04-14T22:17:42.045Z,14.60
2018-04-14T22:20:09.480Z,14.50
2018-04-14T22:22:36.948Z,14.60
2018-04-14T22:25:04.764Z,14.50
2018-04-14T22:27:32.220Z,14.50
2018-04-14T22:29:59.665Z,14.40
2018-04-14T22:32:27.121Z,14.40
2018-04-14T22:34:54.576Z,14.30
2018-04-14T22:37:22.020Z,14.30
2018-04-14T22:39:49.685Z,14.20
2018-04-14T22:42:17.145Z,14.20
2018-04-14T22:44:44.588Z,14.20
2018-04-14T22:47:12.805Z,14.20
2018-04-14T22:49:40.255Z,14.10
2018-04-14T22:52:07.713Z,14.20
2018-04-14T22:54:35.411Z,14.20
2018-04-14T22:57:02.891Z,14.20
2018-04-14T22:59:30.347Z,14.20
2018-04-14T23:01:57.783Z,14.20
2018-04-14T23:04:25.585Z,14.10
2018-04-14T23:06:53.012Z,14.10
2018-04-14T23:09:20.447Z,14.10
2018-04-14T23:11:48.161Z,14.20
2018-04-14T23:14:15.627Z,14.20
2018-04-14T23:16:43.079Z,14.20
2018-04-14T23:19:10.820Z,14.20
2018-04-14T23:21:38.299Z,14.20
2018-04-14T23:24:05.763Z,14.20
2018-04-14T23:26:33.537Z,14.20
2018-04-14T23:29:00.991Z,14.20
2018-04-14T23:31:28.595Z,14.20
2018-04-14T23:33:56.364Z,14.30
2018-04-14T23:36:25.317Z,14.30
2018-04-14T23:38:52.757Z,14.30
2018-04-14T23:41:20.213Z,14.40
2018-04-14T23:43:47.756Z,14.40
2018-04-14T23:46:15.975Z,14.50
2018-04-14T23:48:43.423Z,14.40
2018-04-14T23:51:10.858Z,14.50
2018-04-14T23:53:38.312Z,14.50
2018-04-14T23:56:05.755Z,14.50
2018-04-14T23:58:33.520Z,14.50
